Time;durP1;ratioP1;P1;durP2;ratioP2;P2;SDS_P1;SDS_P2;PMS_P1;PMS_P2;Temp;Humidity;BMP_temperature;BMP_pressure;BME280_temperature;BME280_humidity;BME280_pressure;Samples;Min_cycle;Max_cycle;Signal;HPM_P1;HPM_P2
2021/07/31 00:01:13;;;;;;;4.53;2.85;;;;;;;29.65;56.92;100818.59;5050688;28;65439;-36
2021/07/31 00:03:44;;;;;;;17.17;2.70;;;;;;;29.67;57.72;100816.50;5050059;28;69550;-36
2021/07/31 00:06:29;;;;;;;4.22;2.75;;;;;;;29.78;58.96;100832.06;5053030;28;66221;-36
2021/07/31 00:09:00;;;;;;;4.43;3.45;;;;;;;29.76;60.64;100814.38;5050437;28;70999;-36
2021/07/31 00:11:31;;;;;;;6.80;2.80;;;;;;;29.83;59.11;100818.69;5050564;28;66109;-35
2021/07/31 00:14:04;;;;;;;4.50;2.97;;;;;;;29.94;60.33;100830.72;5050866;28;69599;-41
2021/07/31 00:16:35;;;;;;;5.80;3.85;;;;;;;29.90;60.32;100826.81;5051927;28;65596;-36
2021/07/31 00:19:05;;;;;;;7.47;2.78;;;;;;;29.98;62.18;100831.13;5051527;28;70300;-36
2021/07/31 00:21:35;;;;;;;7.50;3.60;;;;;;;30.01;62.62;100822.59;5050632;28;65410;-35
2021/07/31 00:24:06;;;;;;;6.22;4.00;;;;;;;29.98;62.02;100812.22;5049700;28;70184;-35
2021/07/31 00:26:36;;;;;;;7.55;3.30;;;;;;;30.11;62.29;100822.94;5048105;28;66302;-36
2021/07/31 00:29:06;;;;;;;7.28;3.50;;;;;;;30.14;62.01;100833.31;5047733;28;70275;-35
2021/07/31 00:31:36;;;;;;;7.63;3.58;;;;;;;30.12;63.15;100821.91;5052212;28;66208;-35
2021/07/31 00:34:07;;;;;;;3.53;3.08;;;;;;;30.20;63.87;100832.47;5050871;28;69792;-36
2021/07/31 00:36:37;;;;;;;6.00;3.53;;;;;;;30.23;63.87;100831.25;5052797;28;66146;-36
2021/07/31 00:39:07;;;;;;;3.28;2.63;;;;;;;30.21;64.30;100814.34;5052962;28;70224;-36
2021/07/31 00:41:37;;;;;;;4.57;3.20;;;;;;;30.28;64.21;100829.53;5050171;28;66347;-36
2021/07/31 00:44:11;;;;;;;4.88;2.67;;;;;;;30.23;64.00;100813.13;5057741;28;70446;-36
2021/07/31 00:46:43;;;;;;;4.97;3.15;;;;;;;30.35;65.08;100834.09;5054827;28;66304;-36
2021/07/31 00:49:14;;;;;;;6.32;3.20;;;;;;;30.36;65.67;100841.97;5055284;28;70243;-36
2021/07/31 00:51:44;;;;;;;4.93;3.13;;;;;;;30.42;64.94;100834.84;5053172;28;66866;-35
2021/07/31 00:54:16;;;;;;;4.28;3.00;;;;;;;30.45;65.27;100853.34;5059585;28;69252;-35
2021/07/31 00:56:46;;;;;;;3.65;2.53;;;;;;;30.48;64.91;100844.81;5055170;28;67625;-36
2021/07/31 00:59:17;;;;;;;5.60;3.17;;;;;;;30.39;65.47;100824.47;5038138;28;70235;-35
2021/07/31 01:01:47;;;;;;;3.95;2.70;;;;;;;30.51;65.64;100841.69;5053651;28;65269;-36
2021/07/31 01:04:19;;;;;;;5.55;3.10;;;;;;;30.43;65.26;100836.53;5045072;28;68788;-37
2021/07/31 01:06:49;;;;;;;3.35;2.88;;;;;;;30.58;64.58;100847.03;5053122;28;65681;-37
2021/07/31 01:09:22;;;;;;;4.43;2.65;;;;;;;30.60;64.93;100845.78;5053152;28;69191;-34
2021/07/31 01:11:54;;;;;;;8.50;2.33;;;;;;;30.58;65.60;100841.63;5047087;28;66469;-35
2021/07/31 01:14:25;;;;;;;4.03;2.80;;;;;;;30.60;65.27;100843.06;5062759;27;69384;-35
2021/07/31 01:16:56;;;;;;;6.38;3.10;;;;;;;30.66;65.27;100847.59;5053003;28;67361;-37
2021/07/31 01:19:26;;;;;;;4.20;2.83;;;;;;;30.63;65.04;100842.63;5051921;28;69876;-36
2021/07/31 01:21:58;;;;;;;5.10;2.33;;;;;;;30.70;65.35;100846.13;5054645;28;65998;-35
2021/07/31 01:24:36;;;;;;;3.35;2.28;;;;;;;30.71;66.04;100847.78;5048729;28;69222;-36
2021/07/31 01:27:09;;;;;;;9.40;2.63;;;;;;;30.72;65.16;100841.28;5054310;28;65306;-35
2021/07/31 01:29:39;;;;;;;8.35;2.13;;;;;;;30.77;64.96;100837.13;5053608;28;69176;-36
2021/07/31 01:32:10;;;;;;;12.60;2.35;;;;;;;30.81;65.02;100833.75;5050421;28;66252;-36
2021/07/31 01:34:42;;;;;;;5.32;2.83;;;;;;;30.78;66.59;100822.50;5049696;28;69453;-35
2021/07/31 01:37:14;;;;;;;5.68;2.78;;;;;;;30.90;66.54;100837.03;5068788;27;66408;-35
2021/07/31 01:39:48;;;;;;;4.60;2.30;;;;;;;30.94;66.36;100838.25;5052677;28;69623;-35
2021/07/31 01:42:19;;;;;;;5.80;2.67;;;;;;;30.98;65.25;100830.50;5049391;28;67619;-35
2021/07/31 01:44:50;;;;;;;5.90;2.00;;;;;;;31.00;66.70;100822.97;5050403;28;69464;-37
2021/07/31 01:47:20;;;;;;;8.20;2.72;;;;;;;31.02;66.80;100821.72;5052893;28;66925;-37
2021/07/31 01:49:52;;;;;;;7.93;2.93;;;;;;;31.04;66.27;100826.91;5048970;28;70040;-36
2021/07/31 01:52:25;;;;;;;9.27;3.13;;;;;;;31.07;66.01;100819.16;5038253;28;65292;-37
2021/07/31 01:55:08;;;;;;;7.70;2.70;;;;;;;31.11;65.83;100823.06;5048399;28;70197;-37
2021/07/31 01:58:00;;;;;;;7.53;2.70;;;;;;;31.14;65.90;100830.75;5045623;28;65915;-42
2021/07/31 02:00:41;;;;;;;9.82;3.00;;;;;;;31.13;65.82;100815.56;5041269;28;69990;-37
2021/07/31 02:03:42;;;;;;;3.65;2.58;;;;;;;31.20;66.47;100828.19;5043245;28;64943;-36
2021/07/31 02:06:34;;;;;;;9.07;2.83;;;;;;;31.20;66.48;100814.66;5051954;28;70659;-36
2021/07/31 02:09:33;;;;;;;3.63;2.90;;;;;;;31.22;66.08;100815.25;5010082;28;66942;-37
2021/07/31 02:12:05;;;;;;;5.10;2.90;;;;;;;31.23;66.17;100808.78;4995557;28;69744;-37
2021/07/31 02:14:50;;;;;;;5.85;2.60;;;;;;;31.27;66.11;100823.56;5009329;28;66281;-36
2021/07/31 02:17:27;;;;;;;6.38;2.88;;;;;;;31.29;65.90;100818.75;5011517;28;69405;-38
2021/07/31 02:20:12;;;;;;;6.57;2.80;;;;;;;31.35;66.17;100812.41;4991483;28;66547;-37
2021/07/31 02:23:03;;;;;;;10.30;2.38;;;;;;;31.37;65.29;100818.44;4992862;28;70148;-36
2021/07/31 02:25:55;;;;;;;3.97;2.42;;;;;;;31.31;63.38;100816.63;4991244;28;66541;-36
2021/07/31 02:28:49;;;;;;;8.52;2.75;;;;;;;31.33;62.60;100819.94;5040148;28;69192;-37
2021/07/31 02:31:24;;;;;;;8.13;2.72;;;;;;;31.25;60.39;100822.94;5046212;28;66517;-37
2021/07/31 02:33:59;;;;;;;4.82;2.40;;;;;;;31.17;59.72;100816.78;5047612;28;70052;-36
2021/07/31 02:36:34;;;;;;;15.02;2.67;;;;;;;31.11;58.42;100825.78;5056321;28;65674;-36
2021/07/31 02:39:18;;;;;;;4.57;1.70;;;;;;;31.02;57.62;100813.59;5046546;28;69587;-36
2021/07/31 02:41:54;;;;;;;3.53;1.92;;;;;;;30.88;56.10;100809.34;5042654;28;66030;-38
2021/07/31 02:44:26;;;;;;;9.32;2.55;;;;;;;30.86;55.76;100811.44;5058287;28;69282;-36
2021/07/31 02:47:02;;;;;;;3.67;1.85;;;;;;;30.73;55.11;100815.91;5047471;28;66318;-38
2021/07/31 02:49:47;;;;;;;4.32;1.30;;;;;;;30.71;55.04;100817.97;5044704;28;69392;-38
2021/07/31 02:52:27;;;;;;;2.22;1.30;;;;;;;30.67;54.46;100822.19;5041656;28;66089;-40
2021/07/31 02:55:03;;;;;;;3.88;1.23;;;;;;;30.65;55.92;100821.59;5033539;28;70202;-36
2021/07/31 02:57:36;;;;;;;4.07;1.33;;;;;;;30.64;55.42;100817.19;5049292;28;66126;-36
2021/07/31 03:00:08;;;;;;;4.00;1.30;;;;;;;30.62;55.06;100813.91;5064842;27;70398;-36
2021/07/31 03:02:39;;;;;;;;;;;;;;;30.35;54.59;100807.03;5050196;28;66440;-36
2021/07/31 03:05:11;;;;;;;1.45;0.70;;;;;;;30.49;52.99;100792.34;5050111;28;69766;-36
2021/07/31 03:07:59;;;;;;;5.03;0.70;;;;;;;30.53;52.55;100807.06;5051916;28;67863;-37
2021/07/31 03:10:33;;;;;;;1.30;0.50;;;;;;;30.53;52.49;100804.38;5042776;28;70419;-37
2021/07/31 03:13:03;;;;;;;1.83;0.50;;;;;;;30.45;51.20;100799.22;5044546;28;66270;-37
2021/07/31 03:15:41;;;;;;;1.17;0.45;;;;;;;30.37;50.37;100783.25;5048013;28;70214;-37
2021/07/31 03:18:11;;;;;;;1.95;0.47;;;;;;;30.42;50.29;100802.38;5041947;28;66229;-36
2021/07/31 03:20:54;;;;;;;10.05;0.70;;;;;;;30.44;49.96;100803.00;5063309;28;70265;-38
2021/07/31 03:23:42;;;;;;;3.38;0.43;;;;;;;30.38;49.54;100812.00;5062176;28;67255;-37
2021/07/31 03:26:14;;;;;;;1.65;0.50;;;;;;;30.31;50.27;100795.78;5030301;28;69662;-36
2021/07/31 03:28:48;;;;;;;4.88;0.50;;;;;;;30.40;50.64;100793.66;5048636;28;66085;-37
2021/07/31 03:31:31;;;;;;;7.47;0.70;;;;;;;30.41;51.70;100795.31;5064427;27;70906;-36
2021/07/31 03:34:04;;;;;;;5.03;0.73;;;;;;;30.44;51.50;100794.88;5032772;28;67105;-37
2021/07/31 03:36:39;;;;;;;6.70;0.85;;;;;;;30.42;51.47;100787.00;5048147;28;68795;-38
2021/07/31 03:39:11;;;;;;;3.67;0.60;;;;;;;30.44;50.97;100794.88;5047000;28;66369;-38
2021/07/31 03:41:44;;;;;;;0.68;0.43;;;;;;;30.39;49.70;100778.47;5052509;28;70293;-36
2021/07/31 03:44:21;;;;;;;1.25;0.50;;;;;;;30.32;49.79;100775.81;5051456;28;65128;-37
2021/07/31 03:46:55;;;;;;;4.57;0.60;;;;;;;30.22;49.90;100765.47;5048655;28;69754;-38
2021/07/31 03:49:32;;;;;;;1.65;0.60;;;;;;;30.16;51.37;100763.59;5048193;28;66624;-37
2021/07/31 03:52:03;;;;;;;3.67;0.57;;;;;;;30.08;50.40;100761.16;5043312;28;69404;-37
2021/07/31 03:54:38;;;;;;;2.42;0.50;;;;;;;30.09;49.97;100760.13;5043061;28;66141;-38
2021/07/31 03:57:09;;;;;;;1.10;0.50;;;;;;;29.97;49.68;100748.31;5042047;28;71662;-38
2021/07/31 03:59:48;;;;;;;0.98;0.50;;;;;;;29.93;49.13;100755.22;5042618;28;66713;-36
2021/07/31 04:02:22;;;;;;;0.95;0.40;;;;;;;29.93;48.72;100755.22;5050094;28;69483;-35
2021/07/31 04:04:54;;;;;;;4.00;0.50;;;;;;;29.88;48.33;100731.53;5047202;28;66138;-37
2021/07/31 04:07:27;;;;;;;0.88;0.57;;;;;;;29.87;47.32;100724.47;5043900;28;70315;-38
2021/07/31 04:10:18;;;;;;;2.65;0.38;;;;;;;29.85;47.93;100740.06;5044609;28;65843;-36
2021/07/31 04:13:17;;;;;;;1.23;0.40;;;;;;;29.70;47.77;100721.44;5043713;28;70141;-37
2021/07/31 04:15:57;;;;;;;0.77;0.40;;;;;;;29.78;46.97;100732.00;5030796;28;43276;-36
2021/07/31 04:18:43;;;;;;;2.65;0.30;;;;;;;29.75;47.00;100732.41;5053164;28;70389;-37
2021/07/31 04:21:19;;;;;;;1.25;0.57;;;;;;;29.77;46.56;100721.41;5031653;28;65450;-38
2021/07/31 04:23:50;;;;;;;0.90;0.50;;;;;;;29.74;47.99;100736.19;5047779;28;70665;-36
2021/07/31 04:26:21;;;;;;;1.27;0.65;;;;;;;29.69;50.70;100727.06;5047100;28;65510;-39
2021/07/31 04:28:51;;;;;;;3.60;0.60;;;;;;;29.73;49.93;100723.72;5026488;28;70535;-37
2021/07/31 04:31:26;;;;;;;1.48;0.70;;;;;;;29.80;52.08;100724.50;5051372;28;66567;-37
2021/07/31 04:34:05;;;;;;;0.82;0.43;;;;;;;29.74;51.32;100702.91;5050804;28;70123;-37
2021/07/31 04:36:38;;;;;;;2.15;0.95;;;;;;;29.92;52.07;100711.13;5052437;28;65248;-37
2021/07/31 04:39:19;;;;;;;2.78;0.70;;;;;;;29.94;53.22;100703.59;5052562;28;70475;-36
2021/07/31 04:42:05;;;;;;;1.85;0.60;;;;;;;29.93;51.74;100695.72;5047736;28;66343;-36
2021/07/31 04:44:39;;;;;;;1.20;0.90;;;;;;;29.98;51.43;100704.84;5050316;28;69958;-36
2021/07/31 04:47:09;;;;;;;4.50;0.88;;;;;;;29.90;51.95;100686.19;5034267;28;66547;-37
2021/07/31 04:49:43;;;;;;;7.55;1.10;;;;;;;29.89;51.58;100680.97;5052496;28;69696;-36
2021/07/31 04:52:14;;;;;;;4.10;1.00;;;;;;;30.00;51.92;100685.69;5038452;28;66156;-37
2021/07/31 04:54:45;;;;;;;3.00;1.00;;;;;;;29.98;51.60;100679.69;5051430;28;70019;-37
2021/07/31 04:57:29;;;;;;;3.80;0.98;;;;;;;29.98;50.88;100676.97;5048459;28;66083;-37
2021/07/31 05:00:05;;;;;;;3.83;1.42;;;;;;;30.01;52.79;100676.53;5058098;28;69578;-37
2021/07/31 05:02:38;;;;;;;3.17;0.90;;;;;;;29.92;52.50;100656.19;5046147;28;66167;-36
2021/07/31 05:05:10;;;;;;;10.10;0.90;;;;;;;30.02;52.29;100675.47;5026803;28;69942;-37
2021/07/31 05:07:40;;;;;;;9.27;0.98;;;;;;;30.01;51.04;100663.00;5040743;28;65639;-37
2021/07/31 05:10:13;;;;;;;3.85;0.52;;;;;;;30.10;51.13;100675.22;5042971;28;70587;-37
2021/07/31 05:12:46;;;;;;;8.30;0.65;;;;;;;30.11;50.52;100663.31;5024640;28;66558;-37
2021/07/31 05:15:17;;;;;;;4.72;0.63;;;;;;;30.13;49.87;100668.53;5045966;28;70049;-36
2021/07/31 05:17:49;;;;;;;4.95;0.40;;;;;;;30.15;48.97;100666.44;5060051;28;65608;-37
2021/07/31 05:20:20;;;;;;;;;;;;;;;29.71;49.37;100624.94;5045799;28;70182;-37
2021/07/31 05:22:53;;;;;;;3.97;0.50;;;;;;;30.16;48.71;100663.50;5043742;28;66711;-36
2021/07/31 05:25:26;;;;;;;9.68;0.60;;;;;;;30.22;47.46;100653.69;5045995;28;69564;-35
2021/07/31 05:28:00;;;;;;;7.38;0.40;;;;;;;30.23;47.45;100645.38;5045630;28;65721;-35
2021/07/31 05:30:46;;;;;;;9.27;0.50;;;;;;;30.20;46.99;100648.50;5042036;28;69873;-35
2021/07/31 05:33:20;;;;;;;9.60;0.50;;;;;;;30.25;47.18;100640.56;5041239;28;66563;-36
2021/07/31 05:35:55;;;;;;;5.40;0.50;;;;;;;30.31;46.76;100646.13;5041482;28;70674;-36
2021/07/31 05:38:28;;;;;;;5.60;0.40;;;;;;;30.31;46.90;100651.53;5044936;28;66589;-37
2021/07/31 05:41:05;;;;;;;2.88;0.40;;;;;;;30.34;47.04;100640.28;5042267;28;69320;-44
2021/07/31 05:43:40;;;;;;;0.88;0.50;;;;;;;30.32;46.10;100635.09;5041665;28;66368;-37
2021/07/31 05:46:20;;;;;;;1.00;0.50;;;;;;;30.02;46.01;100583.50;5053288;28;69900;-36
2021/07/31 05:49:03;;;;;;;0.77;0.30;;;;;;;30.35;45.55;100623.00;5050445;28;66013;-35
2021/07/31 05:51:34;;;;;;;0.85;0.40;;;;;;;30.40;45.66;100625.88;5048078;28;69827;-36
2021/07/31 05:54:14;;;;;;;1.65;0.30;;;;;;;30.41;45.84;100622.09;5048393;28;65724;-36
2021/07/31 05:56:49;;;;;;;10.68;0.40;;;;;;;30.37;44.78;100615.47;5044717;28;70649;-37
2021/07/31 05:59:33;;;;;;;3.47;0.50;;;;;;;30.37;45.65;100616.31;5044995;28;65286;-36
2021/07/31 06:02:06;;;;;;;1.55;0.30;;;;;;;30.44;44.99;100616.25;5045310;28;69423;-37
2021/07/31 06:04:50;;;;;;;3.33;0.30;;;;;;;30.45;44.83;100612.47;5051107;28;66056;-37
2021/07/31 06:07:26;;;;;;;0.82;0.50;;;;;;;30.50;45.06;100607.22;5048973;28;70189;-38
2021/07/31 06:09:58;;;;;;;2.63;0.35;;;;;;;30.49;43.44;100597.47;5047753;28;67063;-39
2021/07/31 06:12:35;;;;;;;0.85;0.30;;;;;;;30.52;43.38;100602.41;5029861;28;70138;-38
2021/07/31 06:15:19;;;;;;;2.55;0.40;;;;;;;30.43;43.50;100588.34;5044467;28;66248;-36
2021/07/31 06:17:50;;;;;;;0.40;0.30;;;;;;;30.52;43.84;100599.72;5043088;28;68899;-37
2021/07/31 06:20:34;;;;;;;0.98;0.50;;;;;;;30.58;45.67;100595.28;5042990;28;65785;-36
2021/07/31 06:23:14;;;;;;;1.17;0.40;;;;;;;30.51;44.51;100573.72;5048085;28;70418;-36
2021/07/31 06:25:50;;;;;;;3.00;0.40;;;;;;;30.63;44.70;100582.72;5045208;28;65941;-37
2021/07/31 06:28:20;;;;;;;3.53;0.40;;;;;;;30.61;43.70;100581.28;5044602;28;71598;-38
2021/07/31 06:30:52;;;;;;;0.43;0.30;;;;;;;30.55;43.72;100569.47;5048292;28;65291;-37
2021/07/31 06:33:26;;;;;;;2.95;0.40;;;;;;;30.58;44.01;100574.44;5053533;28;69286;-37
2021/07/31 06:36:02;;;;;;;4.60;0.40;;;;;;;30.70;44.22;100580.78;5049713;28;65166;-37
2021/07/31 06:38:32;;;;;;;0.63;0.35;;;;;;;30.71;43.68;100587.00;5053156;28;69956;-37
2021/07/31 06:41:06;;;;;;;3.85;0.40;;;;;;;30.75;43.31;100571.13;5050099;28;66124;-36
2021/07/31 06:43:39;;;;;;;1.00;0.40;;;;;;;30.66;43.26;100559.78;5049290;28;71441;-36
2021/07/31 06:46:24;;;;;;;0.85;0.35;;;;;;;30.77;43.43;100569.84;5052942;28;66131;-36
2021/07/31 06:48:59;;;;;;;0.50;0.30;;;;;;;30.79;42.87;100567.75;5054369;28;70073;-36
2021/07/31 06:51:31;;;;;;;0.50;0.30;;;;;;;30.80;42.37;100560.47;5050094;28;66076;-35
2021/07/31 06:54:06;;;;;;;0.30;0.30;;;;;;;30.88;43.08;100562.88;5051535;28;69807;-37
2021/07/31 06:56:37;;;;;;;0.40;0.27;;;;;;;30.86;42.10;100559.56;5050098;28;66321;-37
2021/07/31 06:59:07;;;;;;;0.68;0.22;;;;;;;30.90;41.79;100555.38;5053700;28;70126;-37
2021/07/31 07:01:44;;;;;;;1.05;0.40;;;;;;;30.93;42.28;100561.13;5049190;28;66926;-37
2021/07/31 07:04:16;;;;;;;0.30;0.22;;;;;;;30.98;41.60;100552.34;5053888;28;70056;-37
2021/07/31 07:06:46;;;;;;;1.23;0.50;;;;;;;30.91;42.83;100538.06;5049641;28;65272;-37
2021/07/31 07:09:19;;;;;;;4.15;0.50;;;;;;;31.00;42.73;100544.78;5050325;28;69923;-37
2021/07/31 07:11:49;;;;;;;3.70;0.50;;;;;;;30.99;42.42;100526.91;5049562;28;66545;-37
2021/07/31 07:14:21;;;;;;;0.80;0.40;;;;;;;31.02;41.77;100526.44;5051053;28;70016;-37
2021/07/31 07:17:05;;;;;;;0.75;0.35;;;;;;;31.10;41.08;100534.25;5056659;28;65944;-37
2021/07/31 07:19:38;;;;;;;1.42;0.40;;;;;;;31.14;41.75;100537.31;5049370;28;70000;-36
2021/07/31 07:22:10;;;;;;;0.73;0.47;;;;;;;31.15;41.92;100531.66;5028868;28;66175;-37
2021/07/31 07:24:42;;;;;;;3.10;0.40;;;;;;;31.21;42.07;100529.09;5038149;28;70541;-36
2021/07/31 07:27:16;;;;;;;0.50;0.30;;;;;;;31.16;41.73;100516.22;5048689;28;65313;-37
2021/07/31 07:30:00;;;;;;;0.50;0.40;;;;;;;31.19;40.88;100518.47;5049007;28;69638;-37
2021/07/31 07:32:35;;;;;;;0.47;0.40;;;;;;;31.21;40.33;100518.25;5043081;28;65399;-37
2021/07/31 07:35:07;;;;;;;0.73;0.43;;;;;;;31.20;40.83;100498.44;5040426;28;70778;-37
2021/07/31 07:37:38;;;;;;;0.90;0.40;;;;;;;31.19;40.12;100502.22;5050175;28;66937;-38
2021/07/31 07:40:14;;;;;;;2.30;0.38;;;;;;;31.23;40.63;100499.88;5050992;28;70006;-37
2021/07/31 07:42:57;;;;;;;0.50;0.40;;;;;;;31.10;40.32;100468.41;5030381;28;65949;-37
2021/07/31 07:45:29;;;;;;;0.60;0.50;;;;;;;31.18;40.29;100487.03;5048493;28;70033;-37
2021/07/31 07:48:00;;;;;;;1.25;0.40;;;;;;;31.23;40.25;100495.31;5050189;28;66274;-37
2021/07/31 07:50:33;;;;;;;0.47;0.30;;;;;;;31.24;39.80;100480.69;5046959;28;68543;-37
2021/07/31 07:53:09;;;;;;;0.50;0.50;;;;;;;31.24;39.78;100477.16;5048458;28;66551;-37
2021/07/31 07:55:52;;;;;;;0.68;0.50;;;;;;;31.24;39.81;100475.25;5049547;28;69366;-42
2021/07/31 07:58:27;;;;;;;3.33;0.60;;;;;;;31.22;39.57;100465.72;5046510;28;66370;-38
2021/07/31 08:01:10;;;;;;;0.50;0.40;;;;;;;31.16;39.53;100456.63;5050023;28;69930;-37
2021/07/31 08:03:43;;;;;;;4.47;0.70;;;;;;;31.27;41.17;100468.56;5047546;28;65441;-36
2021/07/31 08:06:17;;;;;;;4.05;0.60;;;;;;;31.32;42.81;100468.69;5048353;28;70622;-36
2021/07/31 08:08:49;;;;;;;1.10;0.65;;;;;;;31.23;42.10;100451.94;5055573;28;65801;-36
2021/07/31 08:11:24;;;;;;;1.10;0.90;;;;;;;31.36;42.68;100462.56;5049324;28;69200;-36
2021/07/31 08:14:19;;;;;;;1.27;1.10;;;;;;;31.25;45.62;100452.50;5060043;27;2086311;-37
2021/07/31 08:17:03;;;;;;;1.52;0.95;;;;;;;31.41;45.14;100451.03;5124990;27;69340;-37
2021/07/31 08:19:36;;;;;;;1.08;0.70;;;;;;;31.39;43.57;100458.56;5122746;27;66569;-37
2021/07/31 08:22:21;;;;;;;0.90;0.70;;;;;;;31.36;42.46;100445.50;5119272;27;70022;-36
2021/07/31 08:24:52;;;;;;;1.05;0.77;;;;;;;31.40;42.33;100452.13;5123354;27;66875;-37
2021/07/31 08:27:36;;;;;;;0.80;0.70;;;;;;;31.33;41.57;100445.94;5123360;27;69694;-36
2021/07/31 08:30:12;;;;;;;1.00;0.70;;;;;;;31.36;41.38;100443.59;5127675;27;67104;-37
2021/07/31 08:32:56;;;;;;;0.70;0.60;;;;;;;31.33;40.60;100443.22;5119369;27;69796;-36
2021/07/31 08:35:33;;;;;;;1.52;0.73;;;;;;;31.30;40.35;100446.41;5122036;27;66294;-37
2021/07/31 08:38:04;;;;;;;1.00;0.60;;;;;;;31.41;41.60;100451.03;5121723;27;70103;-35
2021/07/31 08:40:48;;;;;;;4.07;1.05;;;;;;;31.53;43.66;100446.44;5124652;27;64889;-35
2021/07/31 08:43:23;;;;;;;0.80;0.80;;;;;;;31.64;44.10;100446.69;5126008;27;70231;-34
2021/07/31 08:45:55;;;;;;;0.60;0.60;;;;;;;31.68;43.89;100426.16;5123474;27;65991;-35
2021/07/31 08:48:29;;;;;;;1.08;0.60;;;;;;;31.86;43.70;100434.19;5127013;27;69105;-35
2021/07/31 08:51:03;;;;;;;1.52;0.80;;;;;;;31.97;44.06;100436.06;5123474;27;64932;-35
2021/07/31 08:53:40;;;;;;;1.38;0.70;;;;;;;32.02;44.50;100417.19;5123241;27;69779;-35
2021/07/31 08:56:13;;;;;;;3.08;0.80;;;;;;;32.18;44.80;100425.63;5121216;27;65809;-35
2021/07/31 08:58:50;;;;;;;0.70;0.70;;;;;;;32.28;45.16;100423.16;5124951;27;69206;-35
2021/07/31 09:01:23;;;;;;;0.70;0.68;;;;;;;32.36;45.38;100417.34;5126957;27;65551;-35
2021/07/31 09:03:56;;;;;;;0.65;0.63;;;;;;;32.44;45.72;100427.00;5123522;27;70254;-35
2021/07/31 09:06:32;;;;;;;1.42;0.80;;;;;;;32.53;46.30;100417.41;5127307;27;65373;-36
2021/07/31 09:09:04;;;;;;;5.72;2.35;;;;;;;32.63;50.43;100423.06;5125460;27;70693;-36
2021/07/31 09:11:58;;;;;;;4.22;2.90;;;;;;;32.72;53.74;100440.59;5127696;27;65965;-36
2021/07/31 09:14:33;;;;;;;6.22;3.13;;;;;;;32.88;53.43;100430.03;5128008;27;70606;-36
2021/07/31 09:17:07;;;;;;;3.70;3.40;;;;;;;32.97;54.18;100420.38;5127108;27;65624;-38
2021/07/31 09:19:45;;;;;;;3.30;3.10;;;;;;;33.07;55.58;100422.47;5129898;27;70161;-42
2021/07/31 09:22:17;;;;;;;4.35;3.42;;;;;;;33.13;55.23;100416.06;5124833;27;65387;-37
2021/07/31 09:25:08;;;;;;;8.63;3.20;;;;;;;32.84;55.70;100364.47;5117050;27;69822;-37
2021/07/31 09:28:18;;;;;;;3.55;3.22;;;;;;;33.21;56.94;100415.66;5110200;27;66578;-35
2021/07/31 09:31:22;;;;;;;3.90;3.50;;;;;;;33.28;55.14;100424.47;5106054;27;70476;-36
2021/07/31 09:33:59;;;;;;;3.55;3.25;;;;;;;33.41;54.92;100431.47;5109448;27;66720;-36
2021/07/31 09:36:36;;;;;;;2.92;2.72;;;;;;;33.44;54.91;100416.56;5112146;27;70924;-36
2021/07/31 09:39:11;;;;;;;3.05;2.60;;;;;;;33.26;54.38;100383.09;5107115;27;66152;-36
2021/07/31 09:41:44;;;;;;;2.95;2.72;;;;;;;33.46;54.50;100426.09;5108815;27;70161;-36
2021/07/31 09:44:16;;;;;;;3.30;2.57;;;;;;;33.41;54.25;100411.63;5104793;27;66404;-35
2021/07/31 09:46:50;;;;;;;18.75;2.47;;;;;;;33.53;54.97;100431.41;5110841;27;70152;-37
2021/07/31 09:49:31;;;;;;;6.83;3.60;;;;;;;33.54;55.79;100427.59;5106972;27;65471;-37
2021/07/31 09:52:19;;;;;;;8.25;3.90;;;;;;;33.31;56.83;100391.34;5109907;27;71054;-35
2021/07/31 09:54:53;;;;;;;4.63;4.22;;;;;;;33.49;56.12;100419.31;5095270;27;65517;-35
2021/07/31 09:57:26;;;;;;;5.63;4.80;;;;;;;33.70;56.53;100437.63;5110894;27;69778;-36
2021/07/31 10:00:03;;;;;;;6.78;5.22;;;;;;;33.75;57.54;100450.47;5105397;27;66289;-36
2021/07/31 10:02:38;;;;;;;6.68;5.03;;;;;;;33.75;56.89;100454.03;5108375;27;70691;-43
2021/07/31 10:05:10;;;;;;;6.35;5.85;;;;;;;33.76;57.72;100457.56;5110869;27;66151;-36
2021/07/31 10:07:43;;;;;;;7.78;5.47;;;;;;;33.76;57.41;100463.81;5111184;27;70059;-36
2021/07/31 10:10:17;;;;;;;6.03;5.47;;;;;;;33.81;57.28;100466.63;5110702;27;66868;-36
2021/07/31 10:12:49;;;;;;;9.73;5.45;;;;;;;33.83;57.39;100457.41;5109851;27;69634;-37
2021/07/31 10:15:19;;;;;;;5.85;5.35;;;;;;;33.81;57.05;100444.84;5110064;27;64959;-36
2021/07/31 10:17:51;;;;;;;;;;;;;;;33.55;58.07;100457.28;5095242;27;69287;-37
2021/07/31 10:20:30;;;;;;;5.30;4.00;;;;;;;33.82;57.21;100459.28;5110168;27;66813;-37
2021/07/31 10:23:00;;;;;;;4.03;3.63;;;;;;;33.85;56.78;100460.66;5106776;27;70415;-36
2021/07/31 10:25:31;;;;;;;4.30;3.97;;;;;;;33.85;57.08;100444.34;5109854;27;66121;-36
2021/07/31 10:28:28;;;;;;;5.97;3.47;;;;;;;33.75;57.44;100451.31;5108501;27;69558;-35
2021/07/31 10:31:28;;;;;;;4.20;3.53;;;;;;;33.73;57.46;100458.06;5100162;27;66106;-36
2021/07/31 10:33:59;;;;;;;4.13;3.60;;;;;;;33.84;56.66;100448.97;5097276;27;69110;-37
2021/07/31 10:36:35;;;;;;;4.17;3.20;;;;;;;33.86;57.17;100446.00;5113014;27;67301;-37
2021/07/31 10:39:23;;;;;;;8.15;3.05;;;;;;;33.77;57.34;100465.47;5105613;27;69350;-36
2021/07/31 10:42:03;;;;;;;3.60;3.17;;;;;;;33.84;57.07;100464.47;5108423;27;65434;-36
2021/07/31 10:44:33;;;;;;;3.30;3.00;;;;;;;33.85;57.09;100466.13;5108934;27;69876;-36
2021/07/31 10:47:22;;;;;;;3.17;2.83;;;;;;;33.78;57.35;100467.13;5105163;27;65949;-36
2021/07/31 10:49:53;;;;;;;3.00;2.80;;;;;;;33.84;57.05;100464.47;5104178;27;70295;-35
2021/07/31 10:53:03;;;;;;;5.22;3.35;;;;;;;33.75;57.50;100464.91;5107615;27;66124;-37
2021/07/31 10:55:36;;;;;;;4.07;2.40;;;;;;;33.84;57.16;100467.19;5104735;27;69431;-36
2021/07/31 10:58:08;;;;;;;3.33;3.03;;;;;;;33.83;56.97;100462.84;5089756;27;66134;-37
2021/07/31 11:00:43;;;;;;;2.80;2.40;;;;;;;33.83;57.50;100471.00;5106323;27;69088;-37
2021/07/31 11:03:23;;;;;;;3.25;2.60;;;;;;;33.84;57.16;100459.03;5109828;27;66681;-36
2021/07/31 11:06:05;;;;;;;6.35;3.05;;;;;;;33.82;57.22;100464.72;5106956;27;70456;-36
2021/07/31 11:08:52;;;;;;;5.82;2.90;;;;;;;33.78;57.42;100478.00;5108971;27;66965;-36
2021/07/31 11:11:34;;;;;;;3.78;2.42;;;;;;;33.80;57.46;100481.31;5104234;27;70062;-36
2021/07/31 11:14:07;;;;;;;4.97;2.85;;;;;;;33.81;57.41;100488.38;5107810;27;65390;-36
2021/07/31 11:16:39;;;;;;;3.50;3.20;;;;;;;33.81;57.61;100499.25;5109631;27;68931;-36
2021/07/31 11:19:11;;;;;;;4.28;2.88;;;;;;;33.79;57.42;100498.72;5108795;27;65949;-36
2021/07/31 11:21:49;;;;;;;5.20;2.60;;;;;;;33.63;57.69;100471.50;5110014;27;69978;-36
2021/07/31 11:24:22;;;;;;;3.20;2.95;;;;;;;33.80;57.61;100511.22;5110333;27;66145;-36
2021/07/31 11:27:12;;;;;;;3.45;3.15;;;;;;;33.59;57.72;100485.59;5107482;27;70362;-37
2021/07/31 11:29:53;;;;;;;3.22;2.47;;;;;;;33.59;57.52;100496.47;5108919;27;66505;-38
2021/07/31 11:32:29;;;;;;;2.85;2.60;;;;;;;33.81;57.79;100529.19;5107619;27;70549;-38
2021/07/31 11:35:00;;;;;;;2.95;2.72;;;;;;;33.74;57.49;100514.97;5107935;27;66194;-36
2021/07/31 11:37:34;;;;;;;2.90;2.60;;;;;;;33.77;58.08;100522.63;5111465;27;70400;-36
2021/07/31 11:40:06;;;;;;;2.38;2.17;;;;;;;33.78;57.71;100537.84;5105933;27;65017;-37
2021/07/31 11:42:37;;;;;;;3.00;2.50;;;;;;;33.76;57.66;100531.81;5107185;27;68184;-37
2021/07/31 11:45:09;;;;;;;2.78;2.22;;;;;;;33.76;57.74;100536.44;5107712;27;66162;-37
2021/07/31 11:47:39;;;;;;;3.33;2.88;;;;;;;33.76;57.79;100542.72;5107569;27;70424;-37
2021/07/31 11:50:11;;;;;;;2.95;2.75;;;;;;;33.75;57.57;100543.78;5107435;27;66331;-36
2021/07/31 11:52:42;;;;;;;2.25;2.05;;;;;;;33.77;57.54;100557.16;5105709;27;70710;-39
2021/07/31 11:55:38;;;;;;;3.65;3.35;;;;;;;33.63;59.05;100555.81;5108898;27;66346;-37
2021/07/31 11:58:12;;;;;;;10.70;4.38;;;;;;;33.67;58.76;100565.97;5105359;27;70403;-36
2021/07/31 12:00:44;;;;;;;8.52;4.55;;;;;;;33.60;59.46;100578.91;5110119;27;66356;-36
2021/07/31 12:03:46;;;;;;;12.75;4.53;;;;;;;33.49;60.59;100582.47;5112511;27;69347;-39
2021/07/31 12:06:30;;;;;;;7.70;3.93;;;;;;;33.50;61.03;100586.88;5110315;27;65506;-36
2021/07/31 12:09:22;;;;;;;6.70;3.50;;;;;;;33.40;59.42;100586.66;5126966;27;70353;-36